Time;durP1;ratioP1;P1;durP2;ratioP2;P2;SDS_P1;SDS_P2;PMS_P1;PMS_P2;Temp;Humidity;BMP_temperature;BMP_pressure;BME280_temperature;BME280_humidity;BME280_pressure;Samples;Min_cycle;Max_cycle;Signal;HPM_P1;HPM_P2
2022/12/15 00:41:07;;;;;;;25.37;17.93;;;;;;;-3.60;100.00;99038.19;5031797;28;20453;-68
2022/12/15 00:43:34;;;;;;;26.47;18.90;;;;;;;-3.47;100.00;99040.53;5027314;28;20432;-67
2022/12/15 00:48:44;;;;;;;25.03;17.67;;;;;;;-3.57;100.00;99047.34;5033948;28;20416;-67
2022/12/15 00:51:10;;;;;;;28.03;18.03;;;;;;;-3.73;100.00;99051.75;5030651;28;20417;-67
2022/12/15 01:21:02;;;;;;;25.73;18.27;;;;;;;-4.39;100.00;99086.81;5032901;28;20544;-67
2022/12/15 01:23:28;;;;;;;25.83;19.07;;;;;;;-4.25;100.00;99090.88;5030631;28;20516;-67
2022/12/15 01:25:55;;;;;;;27.93;18.10;;;;;;;-4.16;100.00;99094.97;5032574;28;20560;-67
2022/12/15 01:28:21;;;;;;;25.17;19.50;;;;;;;-4.39;100.00;99091.00;5033438;28;20443;-67
2022/12/15 01:30:47;;;;;;;24.03;17.83;;;;;;;-4.44;100.00;99100.25;5028429;28;20407;-67
2022/12/15 01:33:17;;;;;;;26.07;18.67;;;;;;;-4.49;100.00;99109.50;5020067;28;20418;-68
2022/12/15 01:35:42;;;;;;;27.00;17.37;;;;;;;-4.46;100.00;99112.00;5033575;28;20174;-67
2022/12/15 01:38:08;;;;;;;28.53;19.03;;;;;;;-4.45;100.00;99116.16;5032434;28;20440;-67
2022/12/15 01:40:43;;;;;;;27.27;19.47;;;;;;;-4.51;100.00;99111.19;5032471;28;20182;-67
2022/12/15 01:43:16;;;;;;;25.77;17.40;;;;;;;-4.44;100.00;99121.19;5033049;28;20177;-67
2022/12/15 01:45:49;;;;;;;26.43;18.90;;;;;;;-4.38;100.00;99128.66;5028280;28;20426;-67
2022/12/15 01:48:25;;;;;;;26.60;18.87;;;;;;;-4.34;100.00;99124.44;5026370;28;20438;-67
2022/12/15 01:50:56;;;;;;;31.00;19.87;;;;;;;-4.51;100.00;99124.59;5036829;28;20433;-67
2022/12/15 01:53:22;;;;;;;26.17;16.97;;;;;;;-4.50;100.00;99126.25;5025181;28;20428;-66
2022/12/15 01:55:47;;;;;;;32.03;20.20;;;;;;;-4.57;100.00;99122.97;5032345;28;20881;-67
2022/12/15 01:58:15;;;;;;;29.63;19.60;;;;;;;-4.52;100.00;99122.94;5031851;28;20174;-67
2022/12/15 02:00:41;;;;;;;29.70;19.50;;;;;;;-4.41;100.00;99118.63;5030949;28;20236;-67
2022/12/15 02:03:08;;;;;;;27.87;18.53;;;;;;;-4.45;100.00;99128.72;5032493;28;20425;-67
2022/12/15 02:05:34;;;;;;;26.33;18.97;;;;;;;-4.44;100.00;99120.34;5037521;28;20416;-67
2022/12/15 02:08:01;;;;;;;28.43;19.80;;;;;;;-4.47;100.00;99130.41;5018848;28;20421;-67
2022/12/15 02:10:35;;;;;;;28.93;19.23;;;;;;;-4.43;100.00;99130.38;5047563;28;20174;-67
2022/12/15 02:13:34;;;;;;;27.13;18.73;;;;;;;-4.78;100.00;99139.03;5030784;28;20428;-67
2022/12/15 02:16:31;;;;;;;29.37;18.80;;;;;;;-4.83;100.00;99138.22;5030104;28;20485;-67
2022/12/15 02:19:05;;;;;;;30.30;18.63;;;;;;;-4.64;100.00;99141.44;5032170;28;20506;-67
2022/12/15 02:21:45;;;;;;;32.67;19.67;;;;;;;-4.61;100.00;99141.41;5019740;28;20428;-67
2022/12/15 02:24:36;;;;;;;29.60;19.60;;;;;;;-4.81;100.00;99134.03;5030435;28;20461;-67
2022/12/15 02:27:24;;;;;;;26.37;19.20;;;;;;;-4.56;100.00;99137.19;5031980;28;20417;-67
2022/12/15 02:30:17;;;;;;;32.60;20.17;;;;;;;-4.77;100.00;99128.16;5021868;28;20421;-67
2022/12/15 02:32:54;;;;;;;30.20;20.13;;;;;;;-4.81;100.00;99124.00;5032062;28;21094;-67
2022/12/15 02:35:56;;;;;;;32.27;19.17;;;;;;;-4.88;100.00;99132.41;5031569;28;20428;-67
2022/12/15 02:38:31;;;;;;;26.07;19.07;;;;;;;-4.79;100.00;99136.53;5029486;28;20420;-67
2022/12/15 02:40:58;;;;;;;29.00;19.90;;;;;;;-4.83;100.00;99138.22;5034435;28;20465;-67
2022/12/15 02:43:24;;;;;;;28.87;20.87;;;;;;;-4.96;100.00;99137.50;5028857;28;20425;-66
2022/12/15 02:46:08;;;;;;;28.43;19.20;;;;;;;-5.04;100.00;99145.03;5029285;28;20829;-66
2022/12/15 02:49:22;;;;;;;28.20;20.40;;;;;;;-4.98;100.00;99149.19;5021157;28;20416;-67
2022/12/15 02:52:09;;;;;;;30.00;19.73;;;;;;;-5.07;100.00;99149.28;5026240;28;20471;-67
2022/12/15 02:54:57;;;;;;;32.40;20.23;;;;;;;-5.24;100.00;99152.69;5025335;28;20417;-67
2022/12/15 02:58:01;;;;;;;29.10;19.67;;;;;;;-5.25;100.00;99152.72;5036212;28;20959;-66
2022/12/15 03:00:29;;;;;;;28.87;20.77;;;;;;;-5.23;100.00;99146.84;5033074;28;20515;-67
2022/12/15 03:02:55;;;;;;;32.03;21.73;;;;;;;-5.30;100.00;99152.72;5032004;28;20902;-67
2022/12/15 03:05:23;;;;;;;31.47;20.53;;;;;;;-5.31;100.00;99157.75;5050106;28;20426;-67
2022/12/15 03:07:53;;;;;;;29.60;20.57;;;;;;;-5.35;100.00;99159.44;5032601;28;20616;-67
2022/12/15 03:10:22;;;;;;;29.63;20.20;;;;;;;-5.37;100.00;99171.13;5031786;28;20482;-67
2022/12/15 03:12:49;;;;;;;34.37;22.30;;;;;;;-5.49;100.00;99172.03;5031504;28;20417;-66
2022/12/15 03:15:15;;;;;;;33.37;20.77;;;;;;;-5.64;100.00;99182.09;5031396;28;21030;-66
2022/12/15 03:17:40;;;;;;;34.30;22.10;;;;;;;-5.59;100.00;99177.94;5031027;28;20405;-67
2022/12/15 03:20:07;;;;;;;31.77;20.70;;;;;;;-5.62;100.00;99182.94;5031543;28;20240;-67
2022/12/15 03:22:33;;;;;;;35.43;21.20;;;;;;;-5.71;100.00;99181.31;5046437;28;20695;-67
2022/12/15 03:24:58;;;;;;;32.87;20.70;;;;;;;-5.78;100.00;99179.66;5031962;28;20508;-67
2022/12/15 03:27:24;;;;;;;31.10;21.23;;;;;;;-5.83;100.00;99187.16;5026289;28;20199;-66
2022/12/15 03:29:49;;;;;;;33.93;20.00;;;;;;;-5.81;100.00;99184.69;5022293;28;20182;-67
2022/12/15 03:32:14;;;;;;;28.97;20.37;;;;;;;-5.83;100.00;99192.19;5031282;28;20260;-67
2022/12/15 03:34:40;;;;;;;29.37;20.60;;;;;;;-5.86;100.00;99190.53;5031444;28;20595;-66
2022/12/15 03:37:05;;;;;;;32.23;20.80;;;;;;;-5.88;100.00;99193.88;5030765;28;20170;-66
2022/12/15 03:39:31;;;;;;;29.00;19.70;;;;;;;-5.86;100.00;99199.72;5031120;28;20241;-67
2022/12/15 03:41:56;;;;;;;27.67;20.47;;;;;;;-5.87;100.00;99201.38;5031076;28;20182;-66
2022/12/15 03:44:21;;;;;;;28.50;19.50;;;;;;;-5.90;100.00;99203.06;5029422;28;20183;-67
2022/12/15 03:46:47;;;;;;;29.53;20.20;;;;;;;-5.93;100.00;99195.56;5021833;28;20958;-67
2022/12/15 03:49:12;;;;;;;29.13;20.40;;;;;;;-6.11;100.00;99206.47;5035032;28;20201;-67
2022/12/15 03:51:37;;;;;;;31.20;19.63;;;;;;;-6.11;100.00;99198.97;5031796;28;20502;-67
2022/12/15 03:54:03;;;;;;;33.93;21.17;;;;;;;-6.16;100.00;99201.47;5035192;28;20199;-67
2022/12/15 03:56:28;;;;;;;34.77;21.80;;;;;;;-6.29;100.00;99204.81;5034169;28;20209;-67
2022/12/15 03:58:53;;;;;;;32.60;20.67;;;;;;;-6.26;100.00;99207.31;5034359;28;20198;-67
2022/12/15 04:01:27;;;;;;;29.93;21.63;;;;;;;-6.26;100.00;99207.31;5034519;28;20198;-67
2022/12/15 04:03:53;;;;;;;32.53;20.93;;;;;;;-6.22;100.00;99209.00;5035155;28;20185;-67
2022/12/15 04:06:18;;;;;;;34.23;20.13;;;;;;;-6.15;100.00;99213.16;5042144;28;20415;-66
2022/12/15 04:08:43;;;;;;;32.97;21.30;;;;;;;-6.10;100.00;99213.97;5034578;28;20268;-67
2022/12/15 04:11:09;;;;;;;34.83;20.93;;;;;;;-6.04;100.00;99218.97;5034412;28;20182;-67
2022/12/15 04:13:34;;;;;;;31.13;21.57;;;;;;;-5.94;100.00;99218.94;5033793;28;20193;-66
2022/12/15 04:16:03;;;;;;;30.77;20.27;;;;;;;-5.98;100.00;99227.31;5049151;28;20284;-67
2022/12/15 04:18:29;;;;;;;31.07;21.30;;;;;;;-5.92;100.00;99220.59;5034435;28;20186;-67
2022/12/15 04:20:54;;;;;;;33.50;22.50;;;;;;;-5.87;100.00;99230.59;5032745;28;20981;-66
2022/12/15 04:23:20;;;;;;;30.93;20.33;;;;;;;-5.88;100.00;99236.44;5034242;28;20213;-67
2022/12/15 05:31:51;;;;;;;36.30;20.43;;;;;;;-5.71;100.00;99244.75;5032943;28;20418;-67
2022/12/15 05:34:29;;;;;;;28.77;18.80;;;;;;;-5.89;100.00;99249.81;5032892;28;20429;-66
2022/12/15 05:36:56;;;;;;;29.73;19.70;;;;;;;-6.03;100.00;99254.88;5031108;28;20858;-66
2022/12/15 05:39:23;;;;;;;30.63;18.60;;;;;;;-5.94;100.00;99256.50;5029908;28;20461;-67
2022/12/15 05:41:49;;;;;;;29.27;18.70;;;;;;;-5.92;100.00;99259.84;5028108;28;20814;-67
2022/12/15 05:44:16;;;;;;;28.67;19.63;;;;;;;-5.91;100.00;99262.34;5024235;28;20889;-67
2022/12/15 05:46:41;;;;;;;27.47;19.43;;;;;;;-5.97;100.00;99267.34;5031101;28;20429;-67
2022/12/15 05:49:08;;;;;;;32.20;18.93;;;;;;;-5.92;100.00;99272.38;5032943;28;20520;-67
2022/12/15 05:51:39;;;;;;;28.60;19.17;;;;;;;-6.02;100.00;99266.56;5014590;28;20704;-67
2022/12/15 05:54:06;;;;;;;24.07;17.83;;;;;;;-6.13;100.00;99268.22;5031260;28;20429;-66
2022/12/15 05:56:35;;;;;;;34.23;20.73;;;;;;;-6.22;100.00;99264.88;5029601;28;20978;-67
2022/12/15 05:59:00;;;;;;;29.70;18.10;;;;;;;-6.26;100.00;99263.22;5031978;28;21049;-67
2022/12/15 06:01:27;;;;;;;32.33;21.47;;;;;;;-6.27;100.00;99259.03;5032374;28;20420;-67
2022/12/15 06:03:53;;;;;;;29.47;19.67;;;;;;;-6.32;100.00;99270.72;5029684;28;20224;-67
2022/12/15 06:06:19;;;;;;;25.63;17.83;;;;;;;-6.35;100.00;99279.06;5034305;28;20420;-67
2022/12/15 06:08:45;;;;;;;26.53;18.60;;;;;;;-6.42;100.00;99284.06;5028140;28;20193;-67
2022/12/15 06:11:15;;;;;;;26.77;18.07;;;;;;;-6.50;100.00;99286.53;5027060;28;20420;-66
2022/12/15 06:13:41;;;;;;;29.40;19.77;;;;;;;-6.78;100.00;99288.13;5032145;28;20193;-67
2022/12/15 06:16:12;;;;;;;30.57;20.13;;;;;;;-6.83;100.00;99298.97;5027440;28;20497;-67
2022/12/15 06:18:42;;;;;;;31.03;19.73;;;;;;;-6.74;100.00;99298.16;5030896;28;20923;-67
2022/12/15 06:21:11;;;;;;;30.90;19.17;;;;;;;-6.73;100.00;99307.34;5030543;28;20471;-66
2022/12/15 06:23:36;;;;;;;32.87;19.27;;;;;;;-6.75;100.00;99305.66;5031563;28;20418;-67
2022/12/15 06:26:27;;;;;;;26.67;19.10;;;;;;;-6.93;100.00;99312.28;5031542;28;20784;-67
2022/12/15 06:28:56;;;;;;;30.30;19.13;;;;;;;-7.00;100.00;99318.09;5032348;28;20216;-67
2022/12/15 06:31:24;;;;;;;33.47;20.07;;;;;;;-7.25;100.00;99327.97;5046911;28;20489;-68
2022/12/15 06:33:50;;;;;;;31.93;20.23;;;;;;;-7.18;100.00;99328.81;5030580;28;20527;-67
2022/12/15 06:36:17;;;;;;;34.10;19.77;;;;;;;-7.13;100.00;99320.53;5030555;28;20421;-67
2022/12/15 06:38:43;;;;;;;33.07;20.57;;;;;;;-7.05;100.00;99315.56;5027402;28;20445;-67
2022/12/15 06:41:10;;;;;;;28.53;18.33;;;;;;;-7.03;100.00;99321.41;5030989;28;21031;-67
2022/12/15 06:43:36;;;;;;;31.37;19.43;;;;;;;-6.95;100.00;99321.44;5030849;28;20193;-67
2022/12/15 06:46:02;;;;;;;31.10;20.67;;;;;;;-6.92;100.00;99328.97;5028553;28;20715;-67
2022/12/15 06:48:27;;;;;;;30.87;19.63;;;;;;;-6.94;100.00;99337.28;5038322;28;20194;-67
2022/12/15 06:50:53;;;;;;;28.13;18.50;;;;;;;-6.98;100.00;99338.94;5029251;28;20422;-67
2022/12/15 06:53:21;;;;;;;32.90;20.23;;;;;;;-6.99;100.00;99338.09;5023243;28;20184;-67
2022/12/15 06:55:47;;;;;;;29.83;18.37;;;;;;;-7.05;100.00;99349.75;5030804;28;20255;-69
2022/12/15 06:58:13;;;;;;;31.50;19.73;;;;;;;-7.18;100.00;99348.81;5026594;28;20433;-68
2022/12/15 07:00:41;;;;;;;30.03;19.20;;;;;;;-7.05;100.00;99347.25;5029433;28;20526;-68
2022/12/15 07:03:12;;;;;;;31.10;20.10;;;;;;;-7.01;100.00;99342.25;5031466;28;20423;-68
2022/12/15 07:05:38;;;;;;;27.20;18.57;;;;;;;-6.93;100.00;99352.28;5028665;28;20511;-68
2022/12/15 07:08:03;;;;;;;32.43;19.27;;;;;;;-6.86;100.00;99349.00;5027413;28;20480;-68
2022/12/15 07:10:28;;;;;;;32.77;20.73;;;;;;;-6.76;100.00;99342.38;5029939;28;20256;-68
2022/12/15 07:12:57;;;;;;;36.10;21.00;;;;;;;-6.71;100.00;99348.22;5031165;28;20264;-68
2022/12/15 07:15:23;;;;;;;38.00;22.33;;;;;;;-6.66;100.00;99339.06;5027437;28;20184;-68
2022/12/15 07:17:49;;;;;;;34.23;21.53;;;;;;;-6.56;100.00;99356.59;5027741;28;20787;-68
2022/12/15 07:20:15;;;;;;;39.27;23.47;;;;;;;-6.48;100.00;99349.94;5029531;28;20652;-68
2022/12/15 07:22:40;;;;;;;47.37;26.83;;;;;;;-6.41;100.00;99345.78;5032082;28;20422;-67
2022/12/15 07:25:07;;;;;;;54.30;28.67;;;;;;;-6.51;100.00;99342.41;5033793;28;20183;-68
2022/12/15 07:27:32;;;;;;;49.53;29.23;;;;;;;-6.56;100.00;99342.44;5049767;28;20188;-68
2022/12/15 07:29:57;;;;;;;49.77;30.30;;;;;;;-6.57;100.00;99349.91;5026288;28;20446;-68
2022/12/15 07:32:22;;;;;;;56.30;30.93;;;;;;;-6.45;100.00;99349.94;5033745;28;20176;-67
2022/12/15 07:34:48;;;;;;;52.57;30.30;;;;;;;-6.34;100.00;99363.34;5029180;28;20192;-66
2022/12/15 07:37:13;;;;;;;54.37;30.43;;;;;;;-6.19;100.00;99354.16;5029806;28;20185;-66
2022/12/15 07:39:38;;;;;;;72.27;32.27;;;;;;;-6.12;100.00;99365.88;5034949;28;20198;-67
2022/12/15 07:42:04;;;;;;;59.73;30.47;;;;;;;-6.11;100.00;99364.22;5034776;28;20190;-65
2022/12/15 07:44:30;;;;;;;76.57;33.87;;;;;;;-6.05;100.00;99366.72;5034761;28;20179;-66
2022/12/15 07:46:56;;;;;;;65.37;31.23;;;;;;;-6.12;100.00;99370.88;5031549;28;20253;-67
2022/12/15 07:49:21;;;;;;;56.33;31.90;;;;;;;-6.02;100.00;99377.56;5034134;28;20507;-67
2022/12/15 07:51:47;;;;;;;64.80;33.20;;;;;;;-5.94;100.00;99375.06;5021784;28;20182;-68
2022/12/15 07:54:13;;;;;;;60.73;33.13;;;;;;;-5.81;100.00;99385.09;5034862;28;20616;-67
2022/12/15 07:56:39;;;;;;;62.47;33.63;;;;;;;-5.82;100.00;99380.91;5032803;28;20204;-67
2022/12/15 07:59:05;;;;;;;62.83;33.70;;;;;;;-5.83;100.00;99382.56;5029320;28;20473;-67
2022/12/15 08:01:31;;;;;;;66.70;32.43;;;;;;;-5.76;100.00;99381.72;5032202;28;20976;-67
2022/12/15 08:03:57;;;;;;;63.93;31.20;;;;;;;-5.76;100.00;99386.75;5036309;28;20494;-66
2022/12/15 08:06:23;;;;;;;58.27;29.50;;;;;;;-5.80;100.00;99376.72;5043593;28;20416;-66
2022/12/15 08:08:49;;;;;;;55.50;30.53;;;;;;;-5.63;100.00;99371.72;5050020;28;20261;-67
2022/12/15 08:11:15;;;;;;;55.60;30.23;;;;;;;-5.65;100.00;99384.25;5032041;28;20889;-65
2022/12/15 08:13:42;;;;;;;59.33;31.07;;;;;;;-5.67;100.00;99389.25;5049808;28;20561;-66
2022/12/15 08:16:08;;;;;;;53.77;29.70;;;;;;;-5.65;100.00;99390.94;5028906;28;20436;-67
2022/12/15 08:18:33;;;;;;;62.73;32.93;;;;;;;-5.68;100.00;99384.22;5025988;28;20405;-67
2022/12/15 08:21:07;;;;;;;54.33;31.13;;;;;;;-5.65;100.00;99391.75;5032925;28;20202;-70
2022/12/15 08:23:34;;;;;;;56.13;30.70;;;;;;;-5.77;100.00;99384.25;5033007;28;20208;-67
2022/12/15 08:26:04;;;;;;;60.13;31.40;;;;;;;-5.53;100.00;99380.91;5033608;28;20421;-67
2022/12/15 08:28:31;;;;;;;61.97;33.47;;;;;;;-5.46;100.00;99381.72;5032707;28;20416;-66
2022/12/15 08:31:03;;;;;;;57.63;31.23;;;;;;;-5.39;100.00;99370.88;5032040;28;20459;-67
2022/12/15 08:33:29;;;;;;;59.63;33.17;;;;;;;-5.25;100.00;99379.19;5027829;28;20421;-66
2022/12/15 08:35:59;;;;;;;59.63;32.03;;;;;;;-5.16;100.00;99380.84;5027742;28;20420;-67
2022/12/15 08:38:24;;;;;;;61.87;32.67;;;;;;;-5.11;100.00;99394.22;5031946;28;20182;-69
2022/12/15 08:40:49;;;;;;;61.37;33.57;;;;;;;-5.09;100.00;99402.56;5033157;28;20455;-67
2022/12/15 08:43:14;;;;;;;62.07;33.80;;;;;;;-5.12;100.00;99405.09;5032519;28;20178;-65
2022/12/15 08:45:40;;;;;;;58.80;32.70;;;;;;;-4.95;100.00;99399.19;5033170;28;20493;-67
2022/12/15 08:48:05;;;;;;;51.20;28.10;;;;;;;-5.06;100.00;99397.56;5028738;28;20228;-67
2022/12/15 08:50:30;;;;;;;56.90;32.20;;;;;;;-5.27;100.00;99403.44;5033166;28;20201;-67
2022/12/15 08:52:56;;;;;;;57.83;31.67;;;;;;;-5.30;100.00;99405.94;5033407;28;20252;-66
2022/12/15 08:55:22;;;;;;;58.50;31.40;;;;;;;-5.30;100.00;99410.97;5029179;28;20213;-67
2022/12/15 08:57:48;;;;;;;54.47;32.27;;;;;;;-5.31;100.00;99409.28;5032727;28;20181;-68
2022/12/15 09:00:14;;;;;;;58.47;31.40;;;;;;;-5.30;100.00;99405.13;5032931;28;20489;-66
2022/12/15 09:02:39;;;;;;;57.07;31.57;;;;;;;-5.21;100.00;99420.13;5034932;28;20270;-67
2022/12/15 09:05:05;;;;;;;54.87;32.10;;;;;;;-5.24;100.00;99428.50;5033695;28;20873;-67
2022/12/15 09:07:30;;;;;;;56.03;31.70;;;;;;;-5.30;100.00;99441.03;5032680;28;20220;-67
2022/12/15 09:09:56;;;;;;;58.53;32.10;;;;;;;-5.30;100.00;99436.03;5032986;28;20227;-67
2022/12/15 09:12:21;;;;;;;54.13;31.80;;;;;;;-5.15;100.00;99440.19;5028859;28;20193;-67
2022/12/15 09:14:46;;;;;;;56.37;32.07;;;;;;;-4.98;100.00;99445.19;5020832;28;20287;-67
2022/12/15 09:17:11;;;;;;;52.50;30.20;;;;;;;-4.81;100.00;99446.81;5028031;28;20253;-67
2022/12/15 09:19:37;;;;;;;53.17;30.57;;;;;;;-4.76;100.00;99442.66;5024595;28;20259;-67
2022/12/15 09:22:04;;;;;;;51.87;31.67;;;;;;;-4.61;100.00;99446.78;5031731;28;20185;-67
2022/12/15 09:24:29;;;;;;;48.88;29.48;;;;;;;-4.72;100.00;99444.31;5032969;28;20402;-67
2022/12/15 09:26:55;;;;;;;53.30;31.67;;;;;;;-4.70;100.00;99456.00;5032205;28;20554;-64
2022/12/15 09:29:20;;;;;;;53.53;32.57;;;;;;;-4.74;100.00;99468.56;5022639;28;20182;-64
2022/12/15 09:31:45;;;;;;;54.13;31.80;;;;;;;-4.80;100.00;99469.44;5021026;28;20204;-66
2022/12/15 09:34:17;;;;;;;61.27;34.87;;;;;;;-4.77;100.00;99459.38;5032981;28;20185;-67
2022/12/15 09:36:43;;;;;;;56.67;33.50;;;;;;;-4.73;100.00;99462.72;5025736;28;20235;-64
2022/12/15 09:39:13;;;;;;;54.07;33.57;;;;;;;-4.45;100.00;99463.47;5032002;28;20770;-65
2022/12/15 09:41:39;;;;;;;57.17;32.57;;;;;;;-4.08;100.00;99462.44;5031759;28;20538;-64
2022/12/15 09:44:19;;;;;;;54.40;32.67;;;;;;;-4.26;100.00;99456.69;5031199;28;20759;-64
2022/12/15 09:47:08;;;;;;;55.23;33.93;;;;;;;-4.14;100.00;99457.47;5030496;28;20424;-65
2022/12/15 09:49:57;;;;;;;57.17;32.47;;;;;;;-4.46;100.00;99456.75;5032230;28;20413;-65
2022/12/15 09:52:29;;;;;;;55.30;32.93;;;;;;;-4.41;100.00;99456.75;5035684;28;20497;-65
2022/12/15 09:54:56;;;;;;;56.10;41.85;;;;;;;-4.32;100.00;99455.88;5031670;28;20737;-64
2022/12/15 09:57:39;;;;;;;56.90;35.30;;;;;;;-4.05;100.00;99463.28;5027020;28;20522;-64
2022/12/15 10:00:39;;;;;;;50.43;31.20;;;;;;;-4.33;100.00;99470.09;5024448;28;20488;-64
2022/12/15 10:03:25;;;;;;;49.87;29.83;;;;;;;-4.30;100.00;99472.59;5033022;28;20417;-64
2022/12/15 10:06:00;;;;;;;44.80;28.37;;;;;;;-4.42;100.00;99465.94;5031709;28;20962;-62
2022/12/15 10:08:33;;;;;;;45.23;28.67;;;;;;;-4.42;100.00;99470.16;5031397;28;20466;-65
2022/12/15 10:11:02;;;;;;;52.47;29.07;;;;;;;-4.44;100.00;99479.34;5028611;28;20424;-65
2022/12/15 10:13:44;;;;;;;46.33;28.90;;;;;;;-4.43;100.00;99471.84;5031621;28;20429;-64
2022/12/15 10:16:19;;;;;;;51.07;30.77;;;;;;;-4.40;100.00;99471.81;5026244;28;20541;-63
2022/12/15 10:19:12;;;;;;;53.27;32.23;;;;;;;-4.36;100.00;99471.81;5024571;28;20482;-64
2022/12/15 10:21:38;;;;;;;48.27;28.53;;;;;;;-4.32;100.00;99469.25;5027195;28;20990;-64
2022/12/15 10:24:19;;;;;;;48.23;30.67;;;;;;;-4.35;100.00;99464.25;5031810;28;20421;-64
2022/12/15 10:26:55;;;;;;;45.47;28.90;;;;;;;-4.33;100.00;99467.59;5029386;28;20198;-65
2022/12/15 10:29:43;;;;;;;50.73;29.53;;;;;;;-4.43;100.00;99460.94;5026200;28;20444;-64
2022/12/15 10:32:17;;;;;;;41.57;27.70;;;;;;;-4.48;100.00;99457.63;5020707;28;20508;-64
2022/12/15 10:34:42;;;;;;;43.03;29.63;;;;;;;-4.49;100.00;99455.94;5031686;28;20417;-64
2022/12/15 10:37:15;;;;;;;44.43;28.40;;;;;;;-4.44;100.00;99449.22;5027300;28;20434;-64
2022/12/15 10:39:43;;;;;;;48.17;29.87;;;;;;;-4.26;100.00;99450.84;5029632;28;20275;-64
2022/12/15 10:42:23;;;;;;;42.87;29.60;;;;;;;-4.27;100.00;99455.00;5031586;28;20429;-65
2022/12/15 10:44:54;;;;;;;46.33;29.90;;;;;;;-4.31;100.00;99453.34;5026959;28;20421;-65
2022/12/15 10:47:27;;;;;;;44.03;28.03;;;;;;;-4.26;100.00;99448.31;5021670;28;20845;-64
2022/12/15 10:49:56;;;;;;;41.93;29.00;;;;;;;-4.15;100.00;99443.25;5030441;28;20424;-64
2022/12/15 10:52:31;;;;;;;46.67;29.17;;;;;;;-4.06;100.00;99444.03;5024275;28;20490;-65
2022/12/15 10:54:56;;;;;;;41.30;26.67;;;;;;;-3.93;100.00;99443.94;5027981;28;20479;-65
2022/12/15 10:57:28;;;;;;;39.10;28.03;;;;;;;-3.93;100.00;99441.44;5028772;28;20429;-65
2022/12/15 11:00:00;;;;;;;39.97;26.83;;;;;;;-4.06;100.00;99439.03;5027782;28;20235;-64
2022/12/15 11:02:32;;;;;;;41.83;27.53;;;;;;;-4.09;100.00;99436.50;5027537;28;20516;-65
2022/12/15 11:05:04;;;;;;;45.77;28.83;;;;;;;-3.83;100.00;99443.06;5030932;28;20432;-65
2022/12/15 11:07:35;;;;;;;46.07;27.53;;;;;;;-3.92;100.00;99438.09;5032121;28;20413;-66
2022/12/15 11:10:07;;;;;;;47.40;27.30;;;;;;;-3.64;100.00;99427.88;5031101;28;20409;-66
2022/12/15 11:12:51;;;;;;;45.47;29.63;;;;;;;-3.39;100.00;99427.66;5029853;28;20471;-65
2022/12/15 11:15:22;;;;;;;42.33;28.37;;;;;;;-3.20;100.00;99419.13;5030614;28;20204;-65
2022/12/15 11:18:05;;;;;;;51.53;32.30;;;;;;;-3.31;100.00;99426.75;5029205;28;20528;-66
2022/12/15 11:20:38;;;;;;;64.63;32.17;;;;;;;-3.17;100.00;99415.75;5030308;28;20829;-65
2022/12/15 11:23:12;;;;;;;49.20;29.80;;;;;;;-3.22;100.00;99400.69;5028337;28;21011;-65
2022/12/15 11:25:44;;;;;;;40.60;28.90;;;;;;;-3.31;100.00;99403.28;5028141;28;20191;-65
2022/12/15 11:28:15;;;;;;;43.70;28.83;;;;;;;-3.38;100.00;99394.97;5027903;28;20621;-65
2022/12/15 11:31:19;;;;;;;37.50;26.73;;;;;;;-3.20;100.00;99393.97;5030641;28;20254;-66
2022/12/15 11:33:44;;;;;;;39.27;25.80;;;;;;;-3.35;100.00;99386.53;5020555;28;20213;-64
2022/12/15 11:36:56;;;;;;;41.00;25.97;;;;;;;-3.63;100.00;99376.75;5025061;28;20911;-64
2022/12/15 11:40:03;;;;;;;34.07;23.30;;;;;;;-3.78;100.00;99375.19;5020677;28;20675;-65
2022/12/15 11:42:30;;;;;;;37.07;24.67;;;;;;;-3.64;100.00;99382.63;5047806;28;20429;-66
2022/12/15 11:45:18;;;;;;;37.10;24.57;;;;;;;-3.34;100.00;99381.50;5047925;28;20426;-65
2022/12/15 11:47:51;;;;;;;36.83;25.23;;;;;;;-3.30;100.00;99378.13;5047460;28;20428;-66
2022/12/15 11:50:22;;;;;;;42.83;27.63;;;;;;;-3.32;100.00;99371.44;5044423;28;20432;-66
2022/12/15 11:53:03;;;;;;;43.33;29.23;;;;;;;-3.50;100.00;99367.41;5031228;28;20417;-66
2022/12/15 11:56:00;;;;;;;40.37;25.90;;;;;;;-3.46;100.00;99371.53;5044565;28;20217;-65
2022/12/15 11:58:54;;;;;;;40.33;26.83;;;;;;;-3.47;100.00;99365.69;5037473;28;20419;-64
2022/12/15 12:01:52;;;;;;;40.90;28.33;;;;;;;-3.17;100.00;99361.22;5035819;28;21029;-65
2022/12/15 12:04:27;;;;;;;39.40;27.27;;;;;;;-3.04;100.00;99366.13;5040840;28;20953;-65
2022/12/15 12:07:10;;;;;;;38.57;25.97;;;;;;;-2.80;100.00;99365.84;5041096;28;20441;-65
2022/12/15 12:09:46;;;;;;;39.23;28.00;;;;;;;-2.81;100.00;99365.88;5033571;28;20834;-65
2022/12/15 12:12:44;;;;;;;40.63;27.87;;;;;;;-3.10;100.00;99359.47;5032620;28;20410;-64
2022/12/15 12:15:12;;;;;;;37.80;26.50;;;;;;;-3.02;100.00;99346.81;5022569;28;20425;-65
2022/12/15 12:17:59;;;;;;;41.03;27.73;;;;;;;-3.18;100.00;99336.09;5030163;28;20441;-64
2022/12/15 12:20:28;;;;;;;38.40;27.47;;;;;;;-3.09;100.00;99341.00;5031176;28;20542;-64
2022/12/15 12:23:03;;;;;;;43.90;28.60;;;;;;;-3.01;100.00;99346.78;5030323;28;20200;-65
2022/12/15 12:25:36;;;;;;;41.37;27.90;;;;;;;-2.96;100.00;99326.63;5030777;28;20415;-64
2022/12/15 12:28:21;;;;;;;41.33;27.53;;;;;;;-3.29;100.00;99313.56;5030922;28;20749;-64
2022/12/15 12:30:47;;;;;;;39.40;28.40;;;;;;;-3.34;100.00;99312.78;5031196;28;20191;-64
2022/12/15 12:33:27;;;;;;;43.43;29.07;;;;;;;-3.25;100.00;99307.63;5031537;28;20425;-65
2022/12/15 12:35:57;;;;;;;42.20;28.53;;;;;;;-3.42;100.00;99301.09;5030662;28;20182;-66
2022/12/15 12:38:48;;;;;;;46.00;30.63;;;;;;;-3.28;100.00;99290.88;5031031;28;20423;-66
2022/12/15 12:41:28;;;;;;;43.90;29.87;;;;;;;-3.55;100.00;99283.66;5030476;28;20480;-66
2022/12/15 12:43:57;;;;;;;49.50;31.87;;;;;;;-3.58;100.00;99284.50;4995367;28;20987;-66
2022/12/15 12:46:33;;;;;;;46.13;28.73;;;;;;;-3.46;100.00;99283.53;5030014;28;20421;-65
2022/12/15 12:49:28;;;;;;;47.20;30.37;;;;;;;-3.54;100.00;99288.66;5030536;28;20431;-64
2022/12/15 12:51:59;;;;;;;47.17;30.13;;;;;;;-3.53;100.00;99289.50;5026084;28;20815;-65
2022/12/15 12:54:31;;;;;;;43.13;28.30;;;;;;;-3.64;100.00;99290.41;5025229;28;20424;-64
2022/12/15 12:56:56;;;;;;;43.87;28.37;;;;;;;-3.61;100.00;99287.91;5032399;28;20440;-65
2022/12/15 12:59:28;;;;;;;42.50;27.37;;;;;;;-3.85;100.00;99283.91;5031437;28;20513;-65
2022/12/15 13:01:54;;;;;;;49.13;27.63;;;;;;;-3.78;100.00;99277.16;5032092;28;20213;-66
2022/12/15 13:04:28;;;;;;;46.60;28.93;;;;;;;-3.73;100.00;99272.94;5032679;28;20499;-66
2022/12/15 13:07:00;;;;;;;45.80;28.43;;;;;;;-3.65;100.00;99262.78;5031712;28;20424;-65
2022/12/15 13:09:42;;;;;;;43.03;26.97;;;;;;;-3.69;100.00;99267.00;5033062;28;20837;-65
2022/12/15 13:12:50;;;;;;;42.80;26.00;;;;;;;-3.70;100.00;99275.41;5033102;28;20504;-66
2022/12/15 13:15:27;;;;;;;42.60;26.13;;;;;;;-3.58;100.00;99266.91;5030663;28;20512;-64
2022/12/15 13:17:59;;;;;;;46.13;27.03;;;;;;;-3.74;100.00;99264.53;5032640;28;20416;-64
2022/12/15 13:20:26;;;;;;;43.07;28.40;;;;;;;-3.54;100.00;99253.44;5025623;28;20464;-64
2022/12/15 13:22:53;;;;;;;48.17;26.90;;;;;;;-3.57;100.00;99249.28;5030469;28;20413;-64
2022/12/15 13:25:29;;;;;;;36.90;24.60;;;;;;;-3.68;100.00;99242.69;5032645;28;20817;-64
2022/12/15 13:27:58;;;;;;;42.13;27.37;;;;;;;-3.68;100.00;99240.19;5041677;28;20795;-65
2022/12/15 13:30:24;;;;;;;44.40;27.93;;;;;;;-3.37;100.00;99239.84;5028331;28;20445;-67
2022/12/15 13:32:53;;;;;;;49.80;29.33;;;;;;;-3.53;100.00;99244.25;5033142;28;20442;-65
2022/12/15 13:35:30;;;;;;;43.93;27.67;;;;;;;-3.63;100.00;99234.28;5032688;28;20278;-64
2022/12/15 13:37:58;;;;;;;40.13;26.50;;;;;;;-3.61;100.00;99235.09;5032212;28;20428;-65
2022/12/15 13:40:33;;;;;;;43.37;26.33;;;;;;;-3.80;100.00;99234.44;5032150;28;20882;-65
2022/12/15 13:43:05;;;;;;;44.87;29.40;;;;;;;-3.90;100.00;99218.63;5028072;28;20460;-65
2022/12/15 13:45:38;;;;;;;43.83;27.03;;;;;;;-3.90;100.00;99210.25;5025830;28;20511;-64